Longmont, CO

2:22 AM MDT on October 31, 2014 (GMT -0600)
Southmoor Park | Change Station
CLOSE
Current Station
Personal Weather Station
Location: Longmont, CO
Elevation: 4989 ft
Nearby Weather Stations

Elev 4989 ft 40.14 °N, 105.11 °W | Updated 3 seconds ago

Clear
Clear
36.7 °F
Feels Like 37 °F
N
0.0
Wind Variable Wind from NNE
Gusts 7.0 mph

Today
High -- | Low -- °F
--% Chance of Precip.
Yesterday
High -- | Low -- °F
Precip. -- in
7:28 AM 5:58 PM
First Quarter, 53% visible
Pressure 30.40 in
Visibility 10.0 miles
Clouds Clear
Windchill 37 °F
Dew Point 29 °F
Humidity 74%
Rainfall 0.00 in
Snow Depth Not available.
UV 0 out of 12
Pollen 1.20 out of 12
Air Quality Not available.
Flu Activity Not available.
METAR KLMO 310813Z AUTO 02007KT 10SM CLR 02/M01 A3040 RMK AO2 T00221011

More Conditions Fewer Conditions

Pressure 30.40 in
Visibility 10.0 miles
Clouds Clear
Windchill 37 °F
Dew Point 29 °F
Humidity 74%
Rainfall 0.00 in
Snow Depth Not available.
UV 0 out of 12
Pollen 1.20 out of 12
Air Quality Not available.
Flu Activity Not available.
METAR KLMO 310813Z AUTO 02007KT 10SM CLR 02/M01 A3040 RMK AO2 T00221011

More Conditions Fewer Conditions

10-Day Weather Forecast

Almanac

Astronomy

Oct. 31, 2014 Rise Set
Actual Time
Civil Twilight
Nautical Twilight
Astronomical Twilight
Moon
Length of Visible Light
Length of Day
Tomorrow will be .
, % of the Moon is Illuminated

Today's Extremes

State Highs State Lows

Community

WunderPhotos

Upload Photos

1,766,573 photos uploaded!

WunderBlogs® & News

Nearby

Air Quality

  Air Quality AQ Index Pollutant
Not available.

Snow Depth

Station Depth Elevation

Earthquake Activity

City Distance Mag. Time & Date
Minimum magnitude displayed is 2.5.

Coastal Water Temperatures

Place Temperature

Nearby Weather Stations